AFR66 LFPO-LFMP
Flight info
| Callsign | AFR66 |
|---|---|
| Flight time | 0h 59m |
| Altitude | 33000 |
| Route | MONOT R161 CFA A27 MINPA/N0376F180 A27 MOKDI/N0381F190 A27 SIJAN |
| Aircraft | A321/M-SDE3FGHIRWY/LB1 |
Departure
| Time | 2026-04-25 07:52 |
|---|---|
| Airport | Paris-Orly Airport (LFPO) |
Arrival
| Time | 2026-04-25 08:52 |
|---|---|
| Airport | Perpignan-Rivesaltes (Llabanère) Airport (LFMP) |
| Time | Latitude | Longitude | Altitude | Speed | Heading |
|---|---|---|---|---|---|
| 2026-04-25 07:35 | 48.72567 | 2.36134 | 298 ft | 0 kts | 348° |
| 2026-04-25 07:46 | 48.72553 | 2.36138 | 299 ft | 3 kts | 348° |
| 2026-04-25 07:46 | 48.72534 | 2.36144 | 295 ft | 3 kts | 348° |
| 2026-04-25 07:46 | 48.72516 | 2.36149 | 296 ft | 3 kts | 348° |
| 2026-04-25 07:47 | 48.72497 | 2.36159 | 297 ft | 3 kts | 320° |
| 2026-04-25 07:47 | 48.72485 | 2.36180 | 296 ft | 3 kts | 290° |
| 2026-04-25 07:47 | 48.72484 | 2.36185 | 296 ft | 0 kts | 289° |
| 2026-04-25 07:48 | 48.72487 | 2.36169 | 295 ft | 6 kts | 284° |
| 2026-04-25 07:49 | 48.72475 | 2.36052 | 294 ft | 15 kts | 259° |
| 2026-04-25 07:49 | 48.72471 | 2.35910 | 292 ft | 13 kts | 276° |
| 2026-04-25 07:49 | 48.72478 | 2.35773 | 292 ft | 13 kts | 268° |
| 2026-04-25 07:49 | 48.72452 | 2.35645 | 296 ft | 12 kts | 232° |
| 2026-04-25 07:50 | 48.72375 | 2.35633 | 293 ft | 11 kts | 169° |
| 2026-04-25 07:50 | 48.72301 | 2.35623 | 292 ft | 11 kts | 195° |
| 2026-04-25 07:50 | 48.72226 | 2.35606 | 292 ft | 12 kts | 170° |
| 2026-04-25 07:50 | 48.72129 | 2.35641 | 292 ft | 15 kts | 166° |
| 2026-04-25 07:51 | 48.72041 | 2.35727 | 294 ft | 15 kts | 128° |
| 2026-04-25 07:51 | 48.71983 | 2.35862 | 296 ft | 16 kts | 118° |
| 2026-04-25 07:51 | 48.71971 | 2.36015 | 298 ft | 15 kts | 75° |
| 2026-04-25 07:51 | 48.72013 | 2.36238 | 295 ft | 41 kts | 73° |
| 2026-04-25 07:52 | 48.72154 | 2.37005 | 295 ft | 107 kts | 75° |
| 2026-04-25 07:52 | 48.72401 | 2.38357 | 294 ft | 156 kts | 74° |
| 2026-04-25 07:52 | 48.72754 | 2.40098 | 459 ft | 181 kts | 71° |
| 2026-04-25 07:52 | 48.73095 | 2.41888 | 1202 ft | 175 kts | 72° |
| 2026-04-25 07:53 | 48.73414 | 2.43647 | 2044 ft | 171 kts | 74° |
| 2026-04-25 07:53 | 48.73711 | 2.45368 | 2803 ft | 167 kts | 75° |
| 2026-04-25 07:53 | 48.73990 | 2.47065 | 3371 ft | 171 kts | 75° |
| 2026-04-25 07:53 | 48.74165 | 2.48958 | 3626 ft | 193 kts | 84° |
| 2026-04-25 07:54 | 48.74242 | 2.51096 | 3798 ft | 213 kts | 86° |
| 2026-04-25 07:54 | 48.74296 | 2.53166 | 3953 ft | 228 kts | 87° |
| 2026-04-25 07:54 | 48.74343 | 2.55662 | 4154 ft | 246 kts | 92° |
| 2026-04-25 07:54 | 48.73795 | 2.58119 | 4505 ft | 262 kts | 128° |
| 2026-04-25 07:55 | 48.72300 | 2.59699 | 5137 ft | 270 kts | 164° |
| 2026-04-25 07:55 | 48.70424 | 2.59876 | 5887 ft | 274 kts | 186° |
| 2026-04-25 07:55 | 48.68544 | 2.59341 | 6635 ft | 276 kts | 193° |
| 2026-04-25 07:55 | 48.66670 | 2.58606 | 7321 ft | 279 kts | 194° |
| 2026-04-25 07:56 | 48.64803 | 2.57897 | 7985 ft | 282 kts | 193° |
| 2026-04-25 07:56 | 48.62865 | 2.57262 | 8655 ft | 286 kts | 191° |
| 2026-04-25 07:56 | 48.60893 | 2.56712 | 9319 ft | 290 kts | 190° |
| 2026-04-25 07:56 | 48.58894 | 2.56224 | 9984 ft | 293 kts | 189° |
| 2026-04-25 07:57 | 48.56851 | 2.55769 | 10462 ft | 304 kts | 189° |
| 2026-04-25 07:57 | 48.54680 | 2.55312 | 10590 ft | 325 kts | 188° |
| 2026-04-25 07:57 | 48.52371 | 2.54840 | 10713 ft | 345 kts | 188° |
| 2026-04-25 07:57 | 48.49927 | 2.54344 | 10862 ft | 362 kts | 188° |
| 2026-04-25 07:58 | 48.47392 | 2.53824 | 11283 ft | 370 kts | 188° |
| 2026-04-25 07:58 | 48.44830 | 2.53291 | 11831 ft | 374 kts | 188° |
| 2026-04-25 07:58 | 48.42233 | 2.52751 | 12409 ft | 377 kts | 188° |
| 2026-04-25 07:58 | 48.39658 | 2.52213 | 12952 ft | 381 kts | 189° |
| 2026-04-25 07:59 | 48.37016 | 2.51660 | 13491 ft | 384 kts | 189° |
| 2026-04-25 07:59 | 48.35223 | 2.51285 | 13848 ft | 386 kts | 189° |
| 2026-04-25 07:59 | 48.31674 | 2.50547 | 14480 ft | 391 kts | 189° |
| 2026-04-25 07:59 | 48.28969 | 2.49992 | 14953 ft | 393 kts | 189° |
| 2026-04-25 08:00 | 48.26249 | 2.49432 | 15436 ft | 396 kts | 189° |
| 2026-04-25 08:00 | 48.24501 | 2.49070 | 15739 ft | 397 kts | 189° |
| 2026-04-25 08:00 | 48.21680 | 2.48486 | 16200 ft | 400 kts | 189° |
| 2026-04-25 08:00 | 48.18917 | 2.47914 | 16656 ft | 402 kts | 189° |
| 2026-04-25 08:01 | 48.16131 | 2.47339 | 17089 ft | 405 kts | 189° |
| 2026-04-25 08:01 | 48.13331 | 2.46759 | 17495 ft | 407 kts | 189° |
| 2026-04-25 08:01 | 48.10511 | 2.46295 | 17879 ft | 410 kts | 182° |
| 2026-04-25 08:01 | 48.07634 | 2.46520 | 18268 ft | 414 kts | 172° |
| 2026-04-25 08:02 | 48.04826 | 2.47507 | 18614 ft | 417 kts | 162° |
| 2026-04-25 08:02 | 48.02073 | 2.48924 | 18951 ft | 419 kts | 161° |
| 2026-04-25 08:02 | 47.99302 | 2.50348 | 19291 ft | 421 kts | 161° |
| 2026-04-25 08:02 | 47.96524 | 2.51775 | 19633 ft | 424 kts | 161° |
| 2026-04-25 08:03 | 47.93732 | 2.53206 | 19965 ft | 426 kts | 161° |
| 2026-04-25 08:03 | 47.90917 | 2.54644 | 20308 ft | 428 kts | 161° |
| 2026-04-25 08:03 | 47.88093 | 2.56081 | 20658 ft | 430 kts | 162° |
| 2026-04-25 08:03 | 47.85321 | 2.57488 | 20997 ft | 433 kts | 162° |
| 2026-04-25 08:04 | 47.82433 | 2.58948 | 21355 ft | 435 kts | 162° |
| 2026-04-25 08:04 | 47.79585 | 2.60382 | 21687 ft | 438 kts | 162° |
| 2026-04-25 08:04 | 47.76688 | 2.61843 | 22040 ft | 440 kts | 162° |
| 2026-04-25 08:04 | 47.73782 | 2.63317 | 22388 ft | 443 kts | 162° |
| 2026-04-25 08:05 | 47.70865 | 2.64811 | 22744 ft | 445 kts | 161° |
| 2026-04-25 08:05 | 47.67928 | 2.66324 | 23092 ft | 448 kts | 161° |
| 2026-04-25 08:05 | 47.64979 | 2.67841 | 23430 ft | 450 kts | 161° |
| 2026-04-25 08:05 | 47.62008 | 2.69363 | 23757 ft | 453 kts | 162° |
| 2026-04-25 08:06 | 47.59021 | 2.70886 | 24041 ft | 455 kts | 162° |
| 2026-04-25 08:06 | 47.56021 | 2.72411 | 24324 ft | 457 kts | 162° |
| 2026-04-25 08:06 | 47.53011 | 2.73937 | 24623 ft | 458 kts | 162° |
| 2026-04-25 08:06 | 47.49989 | 2.75465 | 24911 ft | 460 kts | 162° |
| 2026-04-25 08:07 | 47.46949 | 2.77001 | 25204 ft | 462 kts | 162° |
| 2026-04-25 08:07 | 47.43904 | 2.78543 | 25486 ft | 464 kts | 162° |
| 2026-04-25 08:07 | 47.40847 | 2.80090 | 25762 ft | 465 kts | 162° |
| 2026-04-25 08:07 | 47.37770 | 2.81645 | 26043 ft | 467 kts | 162° |
| 2026-04-25 08:08 | 47.34683 | 2.83199 | 26323 ft | 469 kts | 162° |
| 2026-04-25 08:08 | 47.31632 | 2.84734 | 26602 ft | 470 kts | 162° |
| 2026-04-25 08:08 | 47.28529 | 2.86296 | 26876 ft | 472 kts | 162° |
| 2026-04-25 08:08 | 47.25424 | 2.87860 | 27125 ft | 473 kts | 162° |
| 2026-04-25 08:09 | 47.22295 | 2.89435 | 27369 ft | 475 kts | 162° |
| 2026-04-25 08:09 | 47.19157 | 2.91011 | 27604 ft | 476 kts | 162° |
| 2026-04-25 08:09 | 47.16005 | 2.92516 | 27836 ft | 477 kts | 166° |
| 2026-04-25 08:09 | 47.12750 | 2.93457 | 28043 ft | 477 kts | 174° |
| 2026-04-25 08:10 | 47.09454 | 2.94091 | 28248 ft | 478 kts | 174° |
| 2026-04-25 08:10 | 47.06147 | 2.94732 | 28448 ft | 479 kts | 174° |
| 2026-04-25 08:10 | 47.02842 | 2.95378 | 28699 ft | 479 kts | 173° |
| 2026-04-25 08:10 | 46.99545 | 2.96025 | 28972 ft | 478 kts | 173° |
| 2026-04-25 08:11 | 46.96250 | 2.96672 | 29241 ft | 477 kts | 173° |
| 2026-04-25 08:11 | 46.92952 | 2.97322 | 29503 ft | 476 kts | 173° |
| 2026-04-25 08:11 | 46.89674 | 2.97971 | 29759 ft | 476 kts | 173° |
| 2026-04-25 08:11 | 46.86402 | 2.98618 | 30011 ft | 475 kts | 173° |
| 2026-04-25 08:12 | 46.83122 | 2.99263 | 30262 ft | 474 kts | 173° |
| 2026-04-25 08:12 | 46.79853 | 2.99901 | 30488 ft | 473 kts | 173° |
| 2026-04-25 08:12 | 46.76634 | 3.00523 | 30723 ft | 472 kts | 174° |
| 2026-04-25 08:12 | 46.73384 | 3.01149 | 30972 ft | 470 kts | 173° |
| 2026-04-25 08:13 | 46.70138 | 3.01774 | 31224 ft | 469 kts | 174° |
| 2026-04-25 08:13 | 46.66909 | 3.02395 | 31459 ft | 468 kts | 173° |
| 2026-04-25 08:13 | 46.63744 | 3.03006 | 31711 ft | 466 kts | 173° |
| 2026-04-25 08:14 | 46.57336 | 3.04251 | 32245 ft | 463 kts | 173° |
| 2026-04-25 08:14 | 46.54144 | 3.04873 | 32507 ft | 462 kts | 173° |
| 2026-04-25 08:14 | 46.50966 | 3.05487 | 32767 ft | 460 kts | 174° |
| 2026-04-25 08:14 | 46.47796 | 3.06035 | 33033 ft | 459 kts | 175° |
| 2026-04-25 08:15 | 46.44637 | 3.06508 | 33286 ft | 457 kts | 175° |
| 2026-04-25 08:15 | 46.41464 | 3.06937 | 33538 ft | 456 kts | 176° |
| 2026-04-25 08:15 | 46.38309 | 3.07353 | 33784 ft | 455 kts | 176° |
| 2026-04-25 08:15 | 46.35158 | 3.07778 | 34029 ft | 454 kts | 175° |
| 2026-04-25 08:16 | 46.32027 | 3.08239 | 34252 ft | 452 kts | 174° |
| 2026-04-25 08:16 | 46.28940 | 3.08806 | 34447 ft | 452 kts | 173° |
| 2026-04-25 08:16 | 46.25795 | 3.09474 | 34632 ft | 452 kts | 172° |
| 2026-04-25 08:16 | 46.22736 | 3.10164 | 34807 ft | 451 kts | 172° |
| 2026-04-25 08:17 | 46.19579 | 3.10875 | 34989 ft | 451 kts | 172° |
| 2026-04-25 08:17 | 46.16519 | 3.11543 | 35115 ft | 451 kts | 173° |
| 2026-04-25 08:17 | 46.13414 | 3.12196 | 35141 ft | 449 kts | 173° |
| 2026-04-25 08:18 | 46.07237 | 3.13458 | 35138 ft | 448 kts | 173° |
| 2026-04-25 08:18 | 46.01053 | 3.14696 | 35154 ft | 448 kts | 173° |
| 2026-04-25 08:19 | 45.94890 | 3.15939 | 35160 ft | 448 kts | 173° |
| 2026-04-25 08:19 | 45.88719 | 3.17133 | 35164 ft | 447 kts | 179° |
| 2026-04-25 08:20 | 45.82497 | 3.17168 | 35166 ft | 446 kts | 181° |
| 2026-04-25 08:20 | 45.76285 | 3.17100 | 35163 ft | 447 kts | 182° |
| 2026-04-25 08:21 | 45.70069 | 3.17039 | 35165 ft | 447 kts | 181° |
| 2026-04-25 08:21 | 45.63887 | 3.16989 | 35159 ft | 447 kts | 181° |
| 2026-04-25 08:22 | 45.57632 | 3.16949 | 35155 ft | 447 kts | 181° |
| 2026-04-25 08:22 | 45.51454 | 3.16919 | 35152 ft | 447 kts | 181° |
| 2026-04-25 08:23 | 45.45233 | 3.16868 | 35151 ft | 447 kts | 181° |
| 2026-04-25 08:23 | 45.39022 | 3.16810 | 35155 ft | 447 kts | 181° |
| 2026-04-25 08:24 | 45.32807 | 3.16756 | 35153 ft | 446 kts | 181° |
| 2026-04-25 08:24 | 45.26592 | 3.16713 | 35156 ft | 446 kts | 181° |
| 2026-04-25 08:25 | 45.20380 | 3.16676 | 35160 ft | 446 kts | 181° |
| 2026-04-25 08:25 | 45.14176 | 3.16625 | 35166 ft | 446 kts | 182° |
| 2026-04-25 08:26 | 45.07974 | 3.16572 | 35168 ft | 446 kts | 181° |
| 2026-04-25 08:26 | 45.01770 | 3.16535 | 35167 ft | 446 kts | 181° |
| 2026-04-25 08:27 | 44.95565 | 3.16495 | 35167 ft | 445 kts | 181° |
| 2026-04-25 08:27 | 44.89363 | 3.16456 | 35165 ft | 445 kts | 181° |
| 2026-04-25 08:28 | 44.83168 | 3.16410 | 35170 ft | 445 kts | 182° |
| 2026-04-25 08:28 | 44.76966 | 3.16356 | 35165 ft | 445 kts | 182° |
| 2026-04-25 08:29 | 44.70772 | 3.16307 | 35168 ft | 445 kts | 182° |
| 2026-04-25 08:29 | 44.64647 | 3.16264 | 35163 ft | 445 kts | 182° |
| 2026-04-25 08:30 | 44.58471 | 3.15865 | 35169 ft | 444 kts | 188° |
| 2026-04-25 08:30 | 44.52382 | 3.14862 | 35168 ft | 444 kts | 188° |
| 2026-04-25 08:31 | 44.46239 | 3.13856 | 35162 ft | 444 kts | 188° |
| 2026-04-25 08:31 | 44.40089 | 3.12847 | 34819 ft | 445 kts | 188° |
| 2026-04-25 08:31 | 44.37012 | 3.12348 | 34404 ft | 446 kts | 188° |
| 2026-04-25 08:32 | 44.33916 | 3.11847 | 33450 ft | 450 kts | 188° |
| 2026-04-25 08:32 | 44.30797 | 3.11340 | 32600 ft | 451 kts | 188° |
| 2026-04-25 08:32 | 44.27667 | 3.10833 | 31728 ft | 453 kts | 188° |
| 2026-04-25 08:32 | 44.24523 | 3.10327 | 30840 ft | 456 kts | 188° |
| 2026-04-25 08:33 | 44.21357 | 3.09816 | 29796 ft | 460 kts | 188° |
| 2026-04-25 08:33 | 44.18205 | 3.09307 | 28793 ft | 462 kts | 188° |
| 2026-04-25 08:33 | 44.15011 | 3.08793 | 27809 ft | 463 kts | 188° |
| 2026-04-25 08:33 | 44.11819 | 3.08282 | 27179 ft | 457 kts | 188° |
| 2026-04-25 08:34 | 44.08675 | 3.07779 | 26510 ft | 453 kts | 188° |
| 2026-04-25 08:34 | 44.05607 | 3.07287 | 25859 ft | 450 kts | 188° |
| 2026-04-25 08:34 | 44.02462 | 3.06780 | 25213 ft | 446 kts | 188° |
| 2026-04-25 08:34 | 43.99389 | 3.06285 | 24576 ft | 442 kts | 188° |
| 2026-04-25 08:35 | 43.96345 | 3.05796 | 23953 ft | 438 kts | 188° |
| 2026-04-25 08:35 | 43.93327 | 3.05310 | 23267 ft | 434 kts | 188° |
| 2026-04-25 08:35 | 43.90406 | 3.04842 | 22698 ft | 428 kts | 188° |
| 2026-04-25 08:35 | 43.87448 | 3.04368 | 22115 ft | 421 kts | 188° |
| 2026-04-25 08:36 | 43.84561 | 3.03907 | 21566 ft | 414 kts | 188° |
| 2026-04-25 08:36 | 43.81723 | 3.03455 | 21025 ft | 407 kts | 188° |
| 2026-04-25 08:36 | 43.78944 | 3.03014 | 20518 ft | 400 kts | 188° |
| 2026-04-25 08:36 | 43.76199 | 3.02579 | 20016 ft | 394 kts | 188° |
| 2026-04-25 08:37 | 43.73486 | 3.02149 | 19549 ft | 392 kts | 188° |
| 2026-04-25 08:37 | 43.70777 | 3.01717 | 19074 ft | 391 kts | 188° |
| 2026-04-25 08:37 | 43.68080 | 3.01287 | 18623 ft | 389 kts | 188° |
| 2026-04-25 08:37 | 43.65396 | 3.00859 | 18139 ft | 388 kts | 188° |
| 2026-04-25 08:38 | 43.62771 | 3.00442 | 17700 ft | 386 kts | 188° |
| 2026-04-25 08:38 | 43.60212 | 3.00036 | 17276 ft | 383 kts | 188° |
| 2026-04-25 08:38 | 43.57574 | 2.99619 | 16824 ft | 381 kts | 188° |
| 2026-04-25 08:38 | 43.54953 | 2.99206 | 16382 ft | 378 kts | 188° |
| 2026-04-25 08:39 | 43.52349 | 2.98797 | 15832 ft | 376 kts | 188° |
| 2026-04-25 08:39 | 43.49754 | 2.98391 | 15332 ft | 374 kts | 188° |
| 2026-04-25 08:39 | 43.47207 | 2.97991 | 14884 ft | 370 kts | 188° |
| 2026-04-25 08:39 | 43.44656 | 2.97590 | 14400 ft | 368 kts | 188° |
| 2026-04-25 08:40 | 43.42122 | 2.97194 | 13927 ft | 365 kts | 188° |
| 2026-04-25 08:40 | 43.39603 | 2.96804 | 13392 ft | 363 kts | 188° |
| 2026-04-25 08:40 | 43.37107 | 2.96415 | 12909 ft | 360 kts | 188° |
| 2026-04-25 08:40 | 43.34615 | 2.96023 | 12401 ft | 358 kts | 188° |
| 2026-04-25 08:41 | 43.32156 | 2.95635 | 11821 ft | 357 kts | 188° |
| 2026-04-25 08:41 | 43.29687 | 2.95248 | 11360 ft | 354 kts | 188° |
| 2026-04-25 08:41 | 43.27241 | 2.94864 | 10914 ft | 351 kts | 188° |
| 2026-04-25 08:41 | 43.24860 | 2.94493 | 10778 ft | 337 kts | 188° |
| 2026-04-25 08:42 | 43.22575 | 2.94143 | 10656 ft | 324 kts | 188° |
| 2026-04-25 08:42 | 43.20412 | 2.93543 | 10511 ft | 311 kts | 200° |
| 2026-04-25 08:42 | 43.18454 | 2.92369 | 10285 ft | 302 kts | 213° |
| 2026-04-25 08:42 | 43.16735 | 2.90748 | 10235 ft | 300 kts | 218° |
| 2026-04-25 08:43 | 43.15040 | 2.89069 | 10163 ft | 300 kts | 218° |
| 2026-04-25 08:43 | 43.13336 | 2.87403 | 10036 ft | 300 kts | 217° |
| 2026-04-25 08:43 | 43.11652 | 2.85766 | 9565 ft | 305 kts | 217° |
| 2026-04-25 08:43 | 43.09906 | 2.84073 | 9078 ft | 299 kts | 217° |
| 2026-04-25 08:44 | 43.08226 | 2.82439 | 8361 ft | 295 kts | 217° |
| 2026-04-25 08:44 | 43.06602 | 2.80860 | 8105 ft | 275 kts | 217° |
| 2026-04-25 08:44 | 43.05097 | 2.79394 | 7891 ft | 262 kts | 217° |
| 2026-04-25 08:44 | 43.03734 | 2.77785 | 7621 ft | 252 kts | 230° |
| 2026-04-25 08:45 | 43.02712 | 2.75819 | 7238 ft | 255 kts | 239° |
| 2026-04-25 08:45 | 43.01775 | 2.73766 | 6634 ft | 253 kts | 239° |
| 2026-04-25 08:45 | 43.00877 | 2.71803 | 6299 ft | 237 kts | 239° |
| 2026-04-25 08:45 | 43.00049 | 2.69996 | 6173 ft | 215 kts | 239° |
| 2026-04-25 08:46 | 42.99040 | 2.68590 | 6044 ft | 203 kts | 211° |
| 2026-04-25 08:46 | 42.97734 | 2.68077 | 5917 ft | 192 kts | 181° |
| 2026-04-25 08:46 | 42.96455 | 2.68463 | 5616 ft | 190 kts | 150° |
| 2026-04-25 08:46 | 42.95325 | 2.69416 | 5340 ft | 189 kts | 146° |
| 2026-04-25 08:47 | 42.94213 | 2.70358 | 5077 ft | 191 kts | 147° |
| 2026-04-25 08:47 | 42.93456 | 2.70996 | 4886 ft | 193 kts | 146° |
| 2026-04-25 08:47 | 42.92295 | 2.71976 | 4605 ft | 199 kts | 146° |
| 2026-04-25 08:47 | 42.91114 | 2.72972 | 4298 ft | 199 kts | 147° |
| 2026-04-25 08:48 | 42.89934 | 2.73966 | 3986 ft | 201 kts | 147° |
| 2026-04-25 08:48 | 42.88734 | 2.74978 | 3683 ft | 209 kts | 147° |
| 2026-04-25 08:48 | 42.87489 | 2.76025 | 3352 ft | 205 kts | 148° |
| 2026-04-25 08:48 | 42.86295 | 2.77025 | 3052 ft | 197 kts | 149° |
| 2026-04-25 08:49 | 42.85172 | 2.77955 | 2823 ft | 183 kts | 149° |
| 2026-04-25 08:49 | 42.84088 | 2.78849 | 2533 ft | 181 kts | 150° |
| 2026-04-25 08:49 | 42.83018 | 2.79743 | 2142 ft | 178 kts | 149° |
| 2026-04-25 08:49 | 42.81688 | 2.80878 | 1856 ft | 163 kts | 149° |
| 2026-04-25 08:50 | 42.81063 | 2.81425 | 1656 ft | 160 kts | 148° |
| 2026-04-25 08:50 | 42.80142 | 2.82234 | 1355 ft | 157 kts | 148° |
| 2026-04-25 08:50 | 42.79218 | 2.83018 | 1215 ft | 156 kts | 149° |
| 2026-04-25 08:50 | 42.78296 | 2.83780 | 1011 ft | 156 kts | 149° |
| 2026-04-25 08:51 | 42.77372 | 2.84534 | 718 ft | 155 kts | 148° |
| 2026-04-25 08:51 | 42.76453 | 2.85287 | 451 ft | 149 kts | 149° |
| 2026-04-25 08:51 | 42.75590 | 2.86021 | 245 ft | 145 kts | 148° |
| 2026-04-25 08:51 | 42.74750 | 2.86721 | 143 ft | 140 kts | 148° |
| 2026-04-25 08:52 | 42.74081 | 2.87284 | 141 ft | 85 kts | 148° |
| 2026-04-25 08:52 | 42.73706 | 2.87605 | 144 ft | 29 kts | 148° |
| 2026-04-25 08:52 | 42.73617 | 2.87545 | 144 ft | 21 kts | 240° |
| 2026-04-25 08:52 | 42.73645 | 2.87422 | 145 ft | 15 kts | 319° |
| 2026-04-25 08:53 | 42.73737 | 2.87325 | 145 ft | 18 kts | 321° |
| 2026-04-25 08:53 | 42.73743 | 2.87318 | 145 ft | 0 kts | 321° |